sensor_id;sensor_type;location;lat;lon;timestamp;temperature;humidity
75321;DHT22;63920;52.130;5.584;2022-10-04T00:00:41;13.30;90.20
75321;DHT22;63920;52.130;5.584;2022-10-04T00:03:08;13.30;90.10
75321;DHT22;63920;52.130;5.584;2022-10-04T00:05:36;13.40;90.20
75321;DHT22;63920;52.130;5.584;2022-10-04T00:08:25;13.30;90.10
75321;DHT22;63920;52.130;5.584;2022-10-04T00:13:50;13.40;90.10
75321;DHT22;63920;52.130;5.584;2022-10-04T00:16:34;13.30;90.00
75321;DHT22;63920;52.130;5.584;2022-10-04T00:24:30;13.20;90.40
75321;DHT22;63920;52.130;5.584;2022-10-04T00:29:36;13.20;90.50
75321;DHT22;63920;52.130;5.584;2022-10-04T00:34:45;13.20;90.60
75321;DHT22;63920;52.130;5.584;2022-10-04T00:37:16;13.20;90.40
75321;DHT22;63920;52.130;5.584;2022-10-04T00:39:43;13.10;90.60
75321;DHT22;63920;52.130;5.584;2022-10-04T00:42:31;13.10;90.60
75321;DHT22;63920;52.130;5.584;2022-10-04T00:45:06;13.10;90.80
75321;DHT22;63920;52.130;5.584;2022-10-04T00:50:33;13.20;90.80
75321;DHT22;63920;52.130;5.584;2022-10-04T00:53:02;13.20;90.50
75321;DHT22;63920;52.130;5.584;2022-10-04T00:55:46;13.20;90.50
75321;DHT22;63920;52.130;5.584;2022-10-04T00:58:47;13.10;90.70
75321;DHT22;63920;52.130;5.584;2022-10-04T01:01:18;13.10;90.90
75321;DHT22;63920;52.130;5.584;2022-10-04T01:03:48;13.20;90.80
75321;DHT22;63920;52.130;5.584;2022-10-04T01:06:15;13.20;90.50
75321;DHT22;63920;52.130;5.584;2022-10-04T01:08:45;13.20;90.70
75321;DHT22;63920;52.130;5.584;2022-10-04T01:11:22;13.20;90.40
75321;DHT22;63920;52.130;5.584;2022-10-04T01:13:56;13.20;90.30
75321;DHT22;63920;52.130;5.584;2022-10-04T01:16:33;13.20;90.70
75321;DHT22;63920;52.130;5.584;2022-10-04T01:21:55;13.30;90.10
75321;DHT22;63920;52.130;5.584;2022-10-04T01:24:22;13.30;90.10
75321;DHT22;63920;52.130;5.584;2022-10-04T01:26:48;13.30;90.10
75321;DHT22;63920;52.130;5.584;2022-10-04T01:29:24;13.20;90.20
75321;DHT22;63920;52.130;5.584;2022-10-04T01:31:52;13.20;90.30
75321;DHT22;63920;52.130;5.584;2022-10-04T01:34:21;13.10;90.30
75321;DHT22;63920;52.130;5.584;2022-10-04T01:36:48;13.10;90.60
75321;DHT22;63920;52.130;5.584;2022-10-04T01:39:16;13.00;90.70
75321;DHT22;63920;52.130;5.584;2022-10-04T01:42:03;13.10;90.60
75321;DHT22;63920;52.130;5.584;2022-10-04T01:44:44;13.10;90.60
75321;DHT22;63920;52.130;5.584;2022-10-04T01:47:15;13.10;90.70
75321;DHT22;63920;52.130;5.584;2022-10-04T01:49:44;13.00;90.40
75321;DHT22;63920;52.130;5.584;2022-10-04T01:52:25;13.00;90.60
75321;DHT22;63920;52.130;5.584;2022-10-04T01:55:10;13.00;90.70
75321;DHT22;63920;52.130;5.584;2022-10-04T01:57:42;13.00;90.40
75321;DHT22;63920;52.130;5.584;2022-10-04T02:00:10;13.00;90.40
75321;DHT22;63920;52.130;5.584;2022-10-04T02:03:10;13.00;90.40
75321;DHT22;63920;52.130;5.584;2022-10-04T02:05:38;12.90;90.40
75321;DHT22;63920;52.130;5.584;2022-10-04T02:08:07;13.00;90.60
75321;DHT22;63920;52.130;5.584;2022-10-04T02:10:35;13.00;90.50
75321;DHT22;63920;52.130;5.584;2022-10-04T02:13:12;13.00;90.40
75321;DHT22;63920;52.130;5.584;2022-10-04T02:15:38;12.90;90.50
75321;DHT22;63920;52.130;5.584;2022-10-04T02:18:12;12.80;90.50
75321;DHT22;63920;52.130;5.584;2022-10-04T02:20:39;12.80;90.80
75321;DHT22;63920;52.130;5.584;2022-10-04T02:23:06;12.80;90.80
75321;DHT22;63920;52.130;5.584;2022-10-04T02:25:35;12.80;90.80
75321;DHT22;63920;52.130;5.584;2022-10-04T02:28:00;12.70;90.90
75321;DHT22;63920;52.130;5.584;2022-10-04T02:30:27;12.70;91.00
75321;DHT22;63920;52.130;5.584;2022-10-04T02:32:55;12.60;90.90
75321;DHT22;63920;52.130;5.584;2022-10-04T02:35:32;12.60;90.90
75321;DHT22;63920;52.130;5.584;2022-10-04T02:38:12;12.60;91.00
75321;DHT22;63920;52.130;5.584;2022-10-04T02:40:55;12.60;90.90
75321;DHT22;63920;52.130;5.584;2022-10-04T02:43:25;12.50;90.90
75321;DHT22;63920;52.130;5.584;2022-10-04T02:46:08;12.50;91.00
75321;DHT22;63920;52.130;5.584;2022-10-04T02:48:46;12.50;91.10
75321;DHT22;63920;52.130;5.584;2022-10-04T02:51:37;12.50;91.10
75321;DHT22;63920;52.130;5.584;2022-10-04T02:56:39;12.60;90.90
75321;DHT22;63920;52.130;5.584;2022-10-04T02:59:06;12.50;90.70
75321;DHT22;63920;52.130;5.584;2022-10-04T03:04:14;12.40;91.10
75321;DHT22;63920;52.130;5.584;2022-10-04T03:06:41;12.40;90.90
75321;DHT22;63920;52.130;5.584;2022-10-04T03:09:08;12.40;91.00
75321;DHT22;63920;52.130;5.584;2022-10-04T03:11:36;12.40;91.00
75321;DHT22;63920;52.130;5.584;2022-10-04T03:14:07;12.30;90.70
75321;DHT22;63920;52.130;5.584;2022-10-04T03:16:36;12.30;91.00
75321;DHT22;63920;52.130;5.584;2022-10-04T03:19:04;12.30;91.10
75321;DHT22;63920;52.130;5.584;2022-10-04T03:21:31;12.30;90.90
75321;DHT22;63920;52.130;5.584;2022-10-04T03:23:58;12.30;90.70
75321;DHT22;63920;52.130;5.584;2022-10-04T03:26:42;12.30;90.70
75321;DHT22;63920;52.130;5.584;2022-10-04T03:29:11;12.30;90.70
75321;DHT22;63920;52.130;5.584;2022-10-04T03:31:47;12.20;90.60
75321;DHT22;63920;52.130;5.584;2022-10-04T03:34:21;12.20;90.70
75321;DHT22;63920;52.130;5.584;2022-10-04T03:36:48;12.20;90.80
75321;DHT22;63920;52.130;5.584;2022-10-04T03:39:24;12.10;90.70
75321;DHT22;63920;52.130;5.584;2022-10-04T03:41:51;12.10;90.70
75321;DHT22;63920;52.130;5.584;2022-10-04T03:44:18;12.00;90.80
75321;DHT22;63920;52.130;5.584;2022-10-04T03:46:45;12.00;90.90
75321;DHT22;63920;52.130;5.584;2022-10-04T03:49:16;12.10;90.70
75321;DHT22;63920;52.130;5.584;2022-10-04T03:51:48;12.00;90.80
75321;DHT22;63920;52.130;5.584;2022-10-04T03:54:21;12.00;90.80
75321;DHT22;63920;52.130;5.584;2022-10-04T03:56:49;12.00;90.80
75321;DHT22;63920;52.130;5.584;2022-10-04T03:59:16;12.00;90.70
75321;DHT22;63920;52.130;5.584;2022-10-04T04:02:06;12.00;90.50
75321;DHT22;63920;52.130;5.584;2022-10-04T04:04:48;11.90;90.80
75321;DHT22;63920;52.130;5.584;2022-10-04T04:07:23;12.00;90.70
75321;DHT22;63920;52.130;5.584;2022-10-04T04:10:03;12.00;90.60
75321;DHT22;63920;52.130;5.584;2022-10-04T04:12:52;12.00;90.50
75321;DHT22;63920;52.130;5.584;2022-10-04T04:15:19;11.90;91.00
75321;DHT22;63920;52.130;5.584;2022-10-04T04:17:47;11.90;90.70
75321;DHT22;63920;52.130;5.584;2022-10-04T04:20:38;11.90;90.70
75321;DHT22;63920;52.130;5.584;2022-10-04T04:25:42;11.80;90.40
75321;DHT22;63920;52.130;5.584;2022-10-04T04:28:22;11.80;90.70
75321;DHT22;63920;52.130;5.584;2022-10-04T04:30:52;11.70;90.70
75321;DHT22;63920;52.130;5.584;2022-10-04T04:33:29;11.70;90.80
75321;DHT22;63920;52.130;5.584;2022-10-04T04:36:06;11.60;90.70
75321;DHT22;63920;52.130;5.584;2022-10-04T04:38:35;11.60;90.80
75321;DHT22;63920;52.130;5.584;2022-10-04T04:41:22;11.60;91.10
75321;DHT22;63920;52.130;5.584;2022-10-04T04:43:49;11.60;90.90
75321;DHT22;63920;52.130;5.584;2022-10-04T04:46:15;11.60;90.80
75321;DHT22;63920;52.130;5.584;2022-10-04T04:48:45;11.50;90.80
75321;DHT22;63920;52.130;5.584;2022-10-04T04:51:19;11.60;91.00
75321;DHT22;63920;52.130;5.584;2022-10-04T04:53:47;11.60;90.90
75321;DHT22;63920;52.130;5.584;2022-10-04T04:56:17;11.60;90.70
75321;DHT22;63920;52.130;5.584;2022-10-04T04:58:45;11.70;90.70
75321;DHT22;63920;52.130;5.584;2022-10-04T05:01:20;11.60;90.70
75321;DHT22;63920;52.130;5.584;2022-10-04T05:04:04;11.60;90.50
75321;DHT22;63920;52.130;5.584;2022-10-04T05:06:32;11.60;90.70
75321;DHT22;63920;52.130;5.584;2022-10-04T05:08:58;11.60;90.90
75321;DHT22;63920;52.130;5.584;2022-10-04T05:11:27;11.60;90.70
75321;DHT22;63920;52.130;5.584;2022-10-04T05:14:02;11.50;90.70
75321;DHT22;63920;52.130;5.584;2022-10-04T05:19:20;11.50;91.00
75321;DHT22;63920;52.130;5.584;2022-10-04T05:21:47;11.40;90.90
75321;DHT22;63920;52.130;5.584;2022-10-04T05:26:56;11.40;90.90
75321;DHT22;63920;52.130;5.584;2022-10-04T05:29:25;11.50;90.90
75321;DHT22;63920;52.130;5.584;2022-10-04T05:34:39;11.40;91.00
75321;DHT22;63920;52.130;5.584;2022-10-04T05:37:44;11.50;91.00
75321;DHT22;63920;52.130;5.584;2022-10-04T05:40:22;11.50;90.90
75321;DHT22;63920;52.130;5.584;2022-10-04T05:42:51;11.40;90.90
75321;DHT22;63920;52.130;5.584;2022-10-04T05:45:20;11.40;90.80
75321;DHT22;63920;52.130;5.584;2022-10-04T05:47:50;11.40;90.90
75321;DHT22;63920;52.130;5.584;2022-10-04T05:50:37;11.40;91.00
75321;DHT22;63920;52.130;5.584;2022-10-04T05:53:28;11.40;90.90
75321;DHT22;63920;52.130;5.584;2022-10-04T05:56:20;11.40;91.00
75321;DHT22;63920;52.130;5.584;2022-10-04T06:01:51;11.30;91.10
75321;DHT22;63920;52.130;5.584;2022-10-04T06:04:50;11.30;91.10
75321;DHT22;63920;52.130;5.584;2022-10-04T06:10:03;11.30;91.20
75321;DHT22;63920;52.130;5.584;2022-10-04T06:13:00;11.30;91.30
75321;DHT22;63920;52.130;5.584;2022-10-04T06:21:24;11.20;90.90
75321;DHT22;63920;52.130;5.584;2022-10-04T06:24:19;11.30;90.80
75321;DHT22;63920;52.130;5.584;2022-10-04T06:26:51;11.30;90.60
75321;DHT22;63920;52.130;5.584;2022-10-04T06:29:25;11.30;90.70
75321;DHT22;63920;52.130;5.584;2022-10-04T06:40:30;11.10;90.90
75321;DHT22;63920;52.130;5.584;2022-10-04T07:02:10;11.30;91.10
75321;DHT22;63920;52.130;5.584;2022-10-04T07:04:41;11.30;91.20
75321;DHT22;63920;52.130;5.584;2022-10-04T07:12:40;11.50;91.40
75321;DHT22;63920;52.130;5.584;2022-10-04T07:15:16;11.60;91.20
75321;DHT22;63920;52.130;5.584;2022-10-04T07:17:44;11.70;91.00
75321;DHT22;63920;52.130;5.584;2022-10-04T07:20:41;11.80;90.80
75321;DHT22;63920;52.130;5.584;2022-10-04T07:23:21;11.90;90.70
75321;DHT22;63920;52.130;5.584;2022-10-04T07:25:52;12.00;90.80
75321;DHT22;63920;52.130;5.584;2022-10-04T07:28:33;11.90;90.40
75321;DHT22;63920;52.130;5.584;2022-10-04T07:31:28;11.90;90.70
75321;DHT22;63920;52.130;5.584;2022-10-04T07:34:08;12.00;90.50
75321;DHT22;63920;52.130;5.584;2022-10-04T07:36:44;12.10;90.50
75321;DHT22;63920;52.130;5.584;2022-10-04T07:39:22;12.20;90.50
75321;DHT22;63920;52.130;5.584;2022-10-04T07:41:55;12.20;90.50
75321;DHT22;63920;52.130;5.584;2022-10-04T07:47:12;12.40;90.00
75321;DHT22;63920;52.130;5.584;2022-10-04T07:49:42;12.50;89.70
75321;DHT22;63920;52.130;5.584;2022-10-04T07:52:16;12.60;89.40
75321;DHT22;63920;52.130;5.584;2022-10-04T08:05:41;13.10;88.50
75321;DHT22;63920;52.130;5.584;2022-10-04T08:16:35;13.30;86.80
75321;DHT22;63920;52.130;5.584;2022-10-04T08:45:46;14.20;82.70
75321;DHT22;63920;52.130;5.584;2022-10-04T08:59:40;14.60;80.70
75321;DHT22;63920;52.130;5.584;2022-10-04T09:13:28;15.00;80.00
75321;DHT22;63920;52.130;5.584;2022-10-04T09:18:49;15.20;79.50
75321;DHT22;63920;52.130;5.584;2022-10-04T09:21:27;15.30;78.60
75321;DHT22;63920;52.130;5.584;2022-10-04T09:27:17;15.50;77.40
75321;DHT22;63920;52.130;5.584;2022-10-04T09:30:33;15.60;77.50
75321;DHT22;63920;52.130;5.584;2022-10-04T09:39:11;15.80;76.60
75321;DHT22;63920;52.130;5.584;2022-10-04T10:12:02;16.10;74.90
75321;DHT22;63920;52.130;5.584;2022-10-04T10:17:39;16.40;74.20
75321;DHT22;63920;52.130;5.584;2022-10-04T10:29:10;16.40;73.80
75321;DHT22;63920;52.130;5.584;2022-10-04T10:34:35;16.50;73.60
75321;DHT22;63920;52.130;5.584;2022-10-04T10:37:09;16.50;73.20
75321;DHT22;63920;52.130;5.584;2022-10-04T10:42:50;16.50;72.30
75321;DHT22;63920;52.130;5.584;2022-10-04T10:48:13;16.40;72.50
75321;DHT22;63920;52.130;5.584;2022-10-04T10:51:17;16.30;72.90
75321;DHT22;63920;52.130;5.584;2022-10-04T10:56:54;16.50;71.40
75321;DHT22;63920;52.130;5.584;2022-10-04T11:11:02;16.30;73.50
75321;DHT22;63920;52.130;5.584;2022-10-04T11:16:52;16.60;71.50
75321;DHT22;63920;52.130;5.584;2022-10-04T11:19:32;16.70;71.00
75321;DHT22;63920;52.130;5.584;2022-10-04T11:22:24;16.80;71.40
75321;DHT22;63920;52.130;5.584;2022-10-04T11:27:48;17.10;69.90
75321;DHT22;63920;52.130;5.584;2022-10-04T11:30:21;17.20;70.60
75321;DHT22;63920;52.130;5.584;2022-10-04T11:32:57;17.20;69.00
75321;DHT22;63920;52.130;5.584;2022-10-04T11:38:32;17.20;69.10
75321;DHT22;63920;52.130;5.584;2022-10-04T11:47:07;16.90;67.10
75321;DHT22;63920;52.130;5.584;2022-10-04T11:57:47;17.00;66.90
75321;DHT22;63920;52.130;5.584;2022-10-04T12:00:22;17.10;67.50
75321;DHT22;63920;52.130;5.584;2022-10-04T12:24:55;17.40;65.60
75321;DHT22;63920;52.130;5.584;2022-10-04T12:27:45;17.40;65.80
75321;DHT22;63920;52.130;5.584;2022-10-04T12:30:22;17.30;64.20
75321;DHT22;63920;52.130;5.584;2022-10-04T12:38:35;17.20;65.00
75321;DHT22;63920;52.130;5.584;2022-10-04T12:41:34;17.10;65.20
75321;DHT22;63920;52.130;5.584;2022-10-04T12:47:44;17.20;65.40
75321;DHT22;63920;52.130;5.584;2022-10-04T12:50:42;17.30;66.00
75321;DHT22;63920;52.130;5.584;2022-10-04T13:01:17;17.80;64.50
75321;DHT22;63920;52.130;5.584;2022-10-04T13:06:26;18.10;64.00
75321;DHT22;63920;52.130;5.584;2022-10-04T13:11:36;18.10;61.50
75321;DHT22;63920;52.130;5.584;2022-10-04T13:17:22;18.10;61.40
75321;DHT22;63920;52.130;5.584;2022-10-04T13:26:04;18.10;59.10
75321;DHT22;63920;52.130;5.584;2022-10-04T13:28:45;18.10;58.90
75321;DHT22;63920;52.130;5.584;2022-10-04T13:31:21;18.20;59.60
75321;DHT22;63920;52.130;5.584;2022-10-04T13:34:04;18.20;59.00
75321;DHT22;63920;52.130;5.584;2022-10-04T13:42:40;18.10;59.60
75321;DHT22;63920;52.130;5.584;2022-10-04T13:45:25;18.20;59.70
75321;DHT22;63920;52.130;5.584;2022-10-04T13:53:22;18.20;61.40
75321;DHT22;63920;52.130;5.584;2022-10-04T14:21:25;18.10;60.80
75321;DHT22;63920;52.130;5.584;2022-10-04T14:24:30;18.10;61.70
75321;DHT22;63920;52.130;5.584;2022-10-04T14:38:55;18.10;61.40
75321;DHT22;63920;52.130;5.584;2022-10-04T14:44:23;18.10;62.60
75321;DHT22;63920;52.130;5.584;2022-10-04T14:58:32;18.10;64.50
75321;DHT22;63920;52.130;5.584;2022-10-04T15:06:49;18.20;64.60
75321;DHT22;63920;52.130;5.584;2022-10-04T15:15:30;18.20;64.20
75321;DHT22;63920;52.130;5.584;2022-10-04T15:17:36;18.20;64.30
75321;DHT22;63920;52.130;5.584;2022-10-04T15:23:06;18.20;65.90
75321;DHT22;63920;52.130;5.584;2022-10-04T15:30:52;18.00;65.20
75321;DHT22;63920;52.130;5.584;2022-10-04T15:33:35;18.00;65.10
75321;DHT22;63920;52.130;5.584;2022-10-04T15:36:39;17.90;65.60
75321;DHT22;63920;52.130;5.584;2022-10-04T15:42:22;17.80;66.40
75321;DHT22;63920;52.130;5.584;2022-10-04T15:44:58;17.70;66.90
75321;DHT22;63920;52.130;5.584;2022-10-04T15:58:50;17.70;68.50
75321;DHT22;63920;52.130;5.584;2022-10-04T16:06:58;17.50;69.30
75321;DHT22;63920;52.130;5.584;2022-10-04T16:09:28;17.40;69.30
75321;DHT22;63920;52.130;5.584;2022-10-04T16:12:16;17.40;70.00
75321;DHT22;63920;52.130;5.584;2022-10-04T16:14:59;17.40;70.20
75321;DHT22;63920;52.130;5.584;2022-10-04T16:17:33;17.40;70.30
75321;DHT22;63920;52.130;5.584;2022-10-04T16:25:46;17.40;70.80
75321;DHT22;63920;52.130;5.584;2022-10-04T16:28:35;17.40;70.70
75321;DHT22;63920;52.130;5.584;2022-10-04T16:31:42;17.40;71.00
75321;DHT22;63920;52.130;5.584;2022-10-04T16:42:50;17.40;71.40
75321;DHT22;63920;52.130;5.584;2022-10-04T16:48:45;17.40;72.20
75321;DHT22;63920;52.130;5.584;2022-10-04T16:51:19;17.30;72.90
75321;DHT22;63920;52.130;5.584;2022-10-04T16:56:29;17.10;73.50
75321;DHT22;63920;52.130;5.584;2022-10-04T16:59:01;17.10;73.90
75321;DHT22;63920;52.130;5.584;2022-10-04T17:04:13;17.10;74.50
75321;DHT22;63920;52.130;5.584;2022-10-04T17:07:13;17.10;74.20
75321;DHT22;63920;52.130;5.584;2022-10-04T17:17:53;17.00;74.30
75321;DHT22;63920;52.130;5.584;2022-10-04T17:25:55;17.00;74.90
75321;DHT22;63920;52.130;5.584;2022-10-04T17:28:29;16.90;75.60
75321;DHT22;63920;52.130;5.584;2022-10-04T17:36:07;16.80;75.70
75321;DHT22;63920;52.130;5.584;2022-10-04T17:41:42;16.90;76.40
75321;DHT22;63920;52.130;5.584;2022-10-04T17:47:18;16.90;76.60
75321;DHT22;63920;52.130;5.584;2022-10-04T17:50:02;16.90;76.00
75321;DHT22;63920;52.130;5.584;2022-10-04T17:52:58;16.90;76.00
75321;DHT22;63920;52.130;5.584;2022-10-04T17:55:50;16.80;76.30
75321;DHT22;63920;52.130;5.584;2022-10-04T18:01:27;16.70;76.50
75321;DHT22;63920;52.130;5.584;2022-10-04T18:06:40;16.60;76.60
75321;DHT22;63920;52.130;5.584;2022-10-04T18:12:10;16.50;77.40
75321;DHT22;63920;52.130;5.584;2022-10-04T18:14:59;16.40;77.80
75321;DHT22;63920;52.130;5.584;2022-10-04T18:17:37;16.40;78.10
75321;DHT22;63920;52.130;5.584;2022-10-04T18:22:49;16.50;78.50
75321;DHT22;63920;52.130;5.584;2022-10-04T18:25:19;16.50;78.40
75321;DHT22;63920;52.130;5.584;2022-10-04T18:28:22;16.60;78.20
75321;DHT22;63920;52.130;5.584;2022-10-04T18:38:34;16.40;78.70
75321;DHT22;63920;52.130;5.584;2022-10-04T18:41:11;16.40;78.50
75321;DHT22;63920;52.130;5.584;2022-10-04T18:46:37;16.50;77.80
75321;DHT22;63920;52.130;5.584;2022-10-04T18:49:20;16.50;77.90
75321;DHT22;63920;52.130;5.584;2022-10-04T18:57:42;16.50;77.90
75321;DHT22;63920;52.130;5.584;2022-10-04T19:00:51;16.40;78.00
75321;DHT22;63920;52.130;5.584;2022-10-04T19:03:56;16.40;78.10
75321;DHT22;63920;52.130;5.584;2022-10-04T19:06:28;16.40;78.50
75321;DHT22;63920;52.130;5.584;2022-10-04T19:11:39;16.40;78.30
75321;DHT22;63920;52.130;5.584;2022-10-04T19:28:16;16.20;78.90
75321;DHT22;63920;52.130;5.584;2022-10-04T19:34:02;16.20;79.00
75321;DHT22;63920;52.130;5.584;2022-10-04T19:36:45;16.20;79.20
75321;DHT22;63920;52.130;5.584;2022-10-04T19:39:26;16.20;79.30
75321;DHT22;63920;52.130;5.584;2022-10-04T19:50:15;16.20;78.90
75321;DHT22;63920;52.130;5.584;2022-10-04T19:55:23;16.20;78.70
75321;DHT22;63920;52.130;5.584;2022-10-04T20:00:49;16.20;78.50
75321;DHT22;63920;52.130;5.584;2022-10-04T20:03:14;16.30;78.70
75321;DHT22;63920;52.130;5.584;2022-10-04T20:05:45;16.30;78.60
75321;DHT22;63920;52.130;5.584;2022-10-04T20:08:13;16.30;78.40
75321;DHT22;63920;52.130;5.584;2022-10-04T20:10:39;16.30;78.60
75321;DHT22;63920;52.130;5.584;2022-10-04T20:13:22;16.30;78.50
75321;DHT22;63920;52.130;5.584;2022-10-04T20:15:56;16.30;78.40
75321;DHT22;63920;52.130;5.584;2022-10-04T20:26:09;16.20;78.50
75321;DHT22;63920;52.130;5.584;2022-10-04T20:28:35;16.20;78.60
75321;DHT22;63920;52.130;5.584;2022-10-04T20:31:06;16.30;78.60
75321;DHT22;63920;52.130;5.584;2022-10-04T20:43:56;16.20;79.00
75321;DHT22;63920;52.130;5.584;2022-10-04T20:46:24;16.20;79.20
75321;DHT22;63920;52.130;5.584;2022-10-04T20:48:52;16.10;79.10
75321;DHT22;63920;52.130;5.584;2022-10-04T20:51:19;16.10;79.60
75321;DHT22;63920;52.130;5.584;2022-10-04T20:53:47;16.10;79.30
75321;DHT22;63920;52.130;5.584;2022-10-04T20:56:31;16.00;79.40
75321;DHT22;63920;52.130;5.584;2022-10-04T20:59:00;16.10;79.30
75321;DHT22;63920;52.130;5.584;2022-10-04T21:01:29;16.00;79.50
75321;DHT22;63920;52.130;5.584;2022-10-04T21:04:21;16.10;79.40
75321;DHT22;63920;52.130;5.584;2022-10-04T21:07:09;16.10;79.50
75321;DHT22;63920;52.130;5.584;2022-10-04T21:09:39;16.10;79.50
75321;DHT22;63920;52.130;5.584;2022-10-04T21:12:23;16.10;79.20
75321;DHT22;63920;52.130;5.584;2022-10-04T21:15:21;16.10;79.30
75321;DHT22;63920;52.130;5.584;2022-10-04T21:18:04;16.10;79.70
75321;DHT22;63920;52.130;5.584;2022-10-04T21:20:41;16.10;79.50
75321;DHT22;63920;52.130;5.584;2022-10-04T21:23:28;16.10;79.40
75321;DHT22;63920;52.130;5.584;2022-10-04T21:26:17;16.10;79.70
75321;DHT22;63920;52.130;5.584;2022-10-04T21:28:44;16.10;79.60
75321;DHT22;63920;52.130;5.584;2022-10-04T21:31:09;16.10;79.80
75321;DHT22;63920;52.130;5.584;2022-10-04T21:33:35;16.10;79.80
75321;DHT22;63920;52.130;5.584;2022-10-04T21:36:02;16.10;80.10
75321;DHT22;63920;52.130;5.584;2022-10-04T21:38:28;16.10;80.10
75321;DHT22;63920;52.130;5.584;2022-10-04T21:40:54;16.00;80.00
75321;DHT22;63920;52.130;5.584;2022-10-04T21:43:21;16.10;80.80
75321;DHT22;63920;52.130;5.584;2022-10-04T21:45:46;16.00;80.10
75321;DHT22;63920;52.130;5.584;2022-10-04T21:48:12;16.00;80.30
75321;DHT22;63920;52.130;5.584;2022-10-04T21:50:38;16.00;80.30
75321;DHT22;63920;52.130;5.584;2022-10-04T21:53:03;16.00;80.50
75321;DHT22;63920;52.130;5.584;2022-10-04T21:55:29;16.00;80.50
75321;DHT22;63920;52.130;5.584;2022-10-04T21:57:54;16.00;80.60
75321;DHT22;63920;52.130;5.584;2022-10-04T22:00:20;16.10;80.40
75321;DHT22;63920;52.130;5.584;2022-10-04T22:02:46;16.00;80.40
75321;DHT22;63920;52.130;5.584;2022-10-04T22:05:11;16.00;80.50
75321;DHT22;63920;52.130;5.584;2022-10-04T22:07:37;16.10;80.20
75321;DHT22;63920;52.130;5.584;2022-10-04T22:10:03;16.00;80.40
75321;DHT22;63920;52.130;5.584;2022-10-04T22:12:28;16.10;80.40
75321;DHT22;63920;52.130;5.584;2022-10-04T22:14:54;16.00;80.70
75321;DHT22;63920;52.130;5.584;2022-10-04T22:17:19;16.00;80.50
75321;DHT22;63920;52.130;5.584;2022-10-04T22:19:45;16.00;80.80
75321;DHT22;63920;52.130;5.584;2022-10-04T22:22:13;16.00;80.80
75321;DHT22;63920;52.130;5.584;2022-10-04T22:24:39;16.00;80.90
75321;DHT22;63920;52.130;5.584;2022-10-04T22:27:16;16.00;80.80
75321;DHT22;63920;52.130;5.584;2022-10-04T22:29:43;16.00;80.90
75321;DHT22;63920;52.130;5.584;2022-10-04T22:32:21;15.90;80.90
75321;DHT22;63920;52.130;5.584;2022-10-04T22:34:52;15.90;81.40
75321;DHT22;63920;52.130;5.584;2022-10-04T22:37:23;15.90;81.30
75321;DHT22;63920;52.130;5.584;2022-10-04T22:39:50;15.90;81.40
75321;DHT22;63920;52.130;5.584;2022-10-04T22:42:17;15.80;81.40
75321;DHT22;63920;52.130;5.584;2022-10-04T22:44:42;15.80;81.40
75321;DHT22;63920;52.130;5.584;2022-10-04T22:47:13;15.80;81.40
75321;DHT22;63920;52.130;5.584;2022-10-04T22:49:44;15.80;81.80
75321;DHT22;63920;52.130;5.584;2022-10-04T22:52:17;15.80;81.70
75321;DHT22;63920;52.130;5.584;2022-10-04T22:54:45;15.80;81.40
75321;DHT22;63920;52.130;5.584;2022-10-04T22:57:14;15.90;81.40
75321;DHT22;63920;52.130;5.584;2022-10-04T22:59:48;15.80;81.70
75321;DHT22;63920;52.130;5.584;2022-10-04T23:02:22;15.80;81.80
75321;DHT22;63920;52.130;5.584;2022-10-04T23:04:56;15.80;82.00
75321;DHT22;63920;52.130;5.584;2022-10-04T23:07:23;15.80;81.90
75321;DHT22;63920;52.130;5.584;2022-10-04T23:09:49;15.80;81.70
75321;DHT22;63920;52.130;5.584;2022-10-04T23:12:14;15.80;82.10
75321;DHT22;63920;52.130;5.584;2022-10-04T23:14:40;15.80;82.00
75321;DHT22;63920;52.130;5.584;2022-10-04T23:17:27;15.80;81.90
75321;DHT22;63920;52.130;5.584;2022-10-04T23:19:59;15.80;82.30
75321;DHT22;63920;52.130;5.584;2022-10-04T23:22:27;15.70;82.20
75321;DHT22;63920;52.130;5.584;2022-10-04T23:24:54;15.80;82.50
75321;DHT22;63920;52.130;5.584;2022-10-04T23:27:20;15.70;82.60
75321;DHT22;63920;52.130;5.584;2022-10-04T23:29:46;15.70;82.50
75321;DHT22;63920;52.130;5.584;2022-10-04T23:32:14;15.70;82.60
75321;DHT22;63920;52.130;5.584;2022-10-04T23:34:45;15.70;82.60
75321;DHT22;63920;52.130;5.584;2022-10-04T23:37:22;15.70;83.40
75321;DHT22;63920;52.130;5.584;2022-10-04T23:39:49;15.70;82.50
75321;DHT22;63920;52.130;5.584;2022-10-04T23:42:20;15.80;82.20
75321;DHT22;63920;52.130;5.584;2022-10-04T23:44:50;15.70;82.10
75321;DHT22;63920;52.130;5.584;2022-10-04T23:47:20;15.80;82.10
75321;DHT22;63920;52.130;5.584;2022-10-04T23:49:49;15.80;82.00
75321;DHT22;63920;52.130;5.584;2022-10-04T23:52:27;15.80;81.90
75321;DHT22;63920;52.130;5.584;2022-10-04T23:54:55;15.70;81.80
75321;DHT22;63920;52.130;5.584;2022-10-04T23:57:23;15.70;81.80
75321;DHT22;63920;52.130;5.584;2022-10-04T23:59:50;15.70;81.90
